Time;durP1;ratioP1;P1;durP2;ratioP2;P2;SDS_P1;SDS_P2;PMS_P1;PMS_P2;Temp;Humidity;BMP_temperature;BMP_pressure;BME280_temperature;BME280_humidity;BME280_pressure;Samples;Min_cycle;Max_cycle;Signal;HPM_P1;HPM_P2
2023/09/22 00:00:14;;;;;;;0.10;0.10;;;;;;;;;;1025014;28;20034;-72
2023/09/22 00:00:44;;;;;;;0.00;0.00;;;;;;;;;;1030285;28;20607;-72
2023/09/22 00:01:16;;;;;;;1.15;1.08;;;;;;;;;;1030192;28;20106;-74
2023/09/22 00:01:47;;;;;;;0.10;0.10;;;;;;;;;;1024680;28;20030;-74
2023/09/22 00:02:18;;;;;;;0.10;0.10;;;;;;;;;;1025521;28;20121;-73
2023/09/22 00:02:48;;;;;;;1.75;1.65;;;;;;;;;;1025665;28;20034;-71
2023/09/22 00:03:18;;;;;;;3.70;1.95;;;;;;;;;;1026183;28;20399;-74
2023/09/22 00:03:49;;;;;;;0.40;0.40;;;;;;;;;;1030450;28;20057;-73
2023/09/22 00:04:20;;;;;;;0.10;0.10;;;;;;;;;;1030399;28;20018;-75
2023/09/22 00:04:50;;;;;;;0.30;0.30;;;;;;;;;;1028911;28;20126;-75
2023/09/22 00:05:23;;;;;;;0.20;0.20;;;;;;;;;;1029939;28;20363;-72
2023/09/22 00:05:54;;;;;;;0.40;0.40;;;;;;;;;;1025460;28;20110;-73
2023/09/22 00:06:24;;;;;;;0.10;0.10;;;;;;;;;;1025830;28;20029;-74
2023/09/22 00:06:55;;;;;;;0.10;0.10;;;;;;;;;;1025875;28;20031;-76
2023/09/22 00:07:25;;;;;;;0.30;0.30;;;;;;;;;;1025769;28;20015;-75
2023/09/22 00:07:56;;;;;;;0.10;0.10;;;;;;;;;;1025529;28;20480;-73
2023/09/22 00:08:26;;;;;;;0.10;0.10;;;;;;;;;;1025876;28;20114;-73
2023/09/22 00:08:57;;;;;;;0.57;0.57;;;;;;;;;;1025990;28;20078;-76
2023/09/22 00:09:27;;;;;;;0.10;0.10;;;;;;;;;;1029824;28;20101;-74
2023/09/22 00:09:58;;;;;;;0.05;0.05;;;;;;;;;;1030118;28;20113;-76
2023/09/22 00:10:28;;;;;;;0.10;0.10;;;;;;;;;;1029445;28;20113;-74
2023/09/22 00:10:59;;;;;;;0.43;0.43;;;;;;;;;;1030434;28;20030;-71
2023/09/22 00:11:30;;;;;;;2.60;2.38;;;;;;;;;;1028983;28;20554;-76
2023/09/22 00:12:01;;;;;;;0.10;0.10;;;;;;;;;;1025474;28;20089;-72
2023/09/22 00:12:32;;;;;;;0.45;0.45;;;;;;;;;;1025477;28;20496;-76
2023/09/22 00:13:03;;;;;;;0.10;0.10;;;;;;;;;;1025687;28;20027;-73
2023/09/22 00:13:34;;;;;;;0.10;0.10;;;;;;;;;;1026451;28;20031;-73
2023/09/22 00:14:04;;;;;;;0.20;0.20;;;;;;;;;;1030377;28;20026;-73
2023/09/22 00:14:35;;;;;;;0.50;0.50;;;;;;;;;;1030357;28;20398;-74
2023/09/22 00:15:06;;;;;;;1.52;1.42;;;;;;;;;;1030308;28;20117;-75
2023/09/22 00:15:36;;;;;;;0.05;0.05;;;;;;;;;;1030369;28;20026;-75
2023/09/22 00:16:09;;;;;;;0.80;0.80;;;;;;;;;;1030232;28;20022;-72
2023/09/22 00:16:40;;;;;;;0.55;0.55;;;;;;;;;;1029168;28;20030;-75
2023/09/22 00:17:10;;;;;;;0.00;0.00;;;;;;;;;;1029750;28;20128;-75
2023/09/22 00:17:41;;;;;;;0.10;0.10;;;;;;;;;;1029873;28;20031;-75
2023/09/22 00:18:11;;;;;;;0.00;0.00;;;;;;;;;;1031043;28;20033;-74
2023/09/22 00:18:42;;;;;;;0.10;0.10;;;;;;;;;;1025444;28;20031;-73
2023/09/22 00:19:12;;;;;;;0.00;0.00;;;;;;;;;;1025603;28;20020;-72
2023/09/22 00:19:45;;;;;;;1.00;1.00;;;;;;;;;;1021770;29;20177;-75
2023/09/22 00:20:15;;;;;;;0.00;0.00;;;;;;;;;;1021953;28;20023;-73
2023/09/22 00:20:46;;;;;;;0.32;0.32;;;;;;;;;;1025535;28;20122;-74
2023/09/22 00:21:17;;;;;;;0.00;0.00;;;;;;;;;;1025639;28;20031;-74
2023/09/22 00:21:47;;;;;;;0.00;0.00;;;;;;;;;;1027868;28;20027;-73
2023/09/22 00:22:17;;;;;;;0.03;0.03;;;;;;;;;;1029901;28;20487;-74
2023/09/22 00:22:48;;;;;;;0.03;0.03;;;;;;;;;;1029810;28;20030;-73
2023/09/22 00:23:18;;;;;;;0.40;0.40;;;;;;;;;;1029831;28;20033;-73
2023/09/22 00:23:49;;;;;;;0.38;0.38;;;;;;;;;;1029910;28;20033;-72
2023/09/22 00:24:20;;;;;;;0.38;0.38;;;;;;;;;;1025380;28;20019;-74
2023/09/22 00:24:51;;;;;;;0.00;0.00;;;;;;;;;;1021707;29;20024;-73
2023/09/22 00:25:25;;;;;;;0.10;0.10;;;;;;;;;;1022123;29;20666;-75
2023/09/22 00:25:55;;;;;;;0.20;0.20;;;;;;;;;;1022590;29;20106;-72
2023/09/22 00:26:26;;;;;;;0.80;0.80;;;;;;;;;;1026629;28;20471;-73
2023/09/22 00:26:56;;;;;;;0.10;0.10;;;;;;;;;;1030029;28;20018;-71
2023/09/22 00:27:27;;;;;;;0.00;0.00;;;;;;;;;;1029858;28;20169;-73
2023/09/22 00:27:57;;;;;;;2.58;1.13;;;;;;;;;;1029782;28;20106;-73
2023/09/22 00:28:28;;;;;;;0.10;0.10;;;;;;;;;;1030017;28;20081;-71
2023/09/22 00:28:58;;;;;;;0.70;0.70;;;;;;;;;;1031655;28;20022;-73
2023/09/22 00:29:29;;;;;;;0.00;0.00;;;;;;;;;;1027708;28;20026;-74
2023/09/22 00:29:59;;;;;;;0.03;0.03;;;;;;;;;;1027875;28;20029;-72
2023/09/22 00:30:30;;;;;;;2.03;1.27;;;;;;;;;;1027421;28;20372;-78
2023/09/22 00:31:00;;;;;;;0.10;0.10;;;;;;;;;;1025263;28;20023;-73
2023/09/22 00:31:30;;;;;;;0.10;0.10;;;;;;;;;;1029673;28;20457;-74
2023/09/22 00:32:02;;;;;;;0.10;0.10;;;;;;;;;;1029414;28;20038;-70
2023/09/22 00:32:32;;;;;;;0.13;0.13;;;;;;;;;;1029495;28;20019;-73
2023/09/22 00:33:03;;;;;;;0.63;0.63;;;;;;;;;;1030027;28;20014;-74
2023/09/22 00:33:33;;;;;;;0.00;0.00;;;;;;;;;;1029920;28;20521;-73
2023/09/22 00:34:04;;;;;;;0.10;0.10;;;;;;;;;;1029986;28;20030;-73
2023/09/22 00:34:34;;;;;;;0.10;0.10;;;;;;;;;;1029559;28;20026;-74
2023/09/22 00:35:06;;;;;;;0.00;0.00;;;;;;;;;;1029212;28;20617;-73
2023/09/22 00:35:36;;;;;;;0.10;0.10;;;;;;;;;;1030130;28;20414;-74
2023/09/22 00:36:07;;;;;;;0.10;0.10;;;;;;;;;;1029704;28;20019;-73
2023/09/22 00:36:37;;;;;;;0.10;0.10;;;;;;;;;;1029564;28;20076;-71
2023/09/22 00:37:08;;;;;;;0.10;0.10;;;;;;;;;;1029626;28;20019;-73
2023/09/22 00:37:40;;;;;;;0.20;0.20;;;;;;;;;;1029679;28;20434;-74
2023/09/22 00:38:10;;;;;;;0.00;0.00;;;;;;;;;;1029174;28;20026;-73
2023/09/22 00:38:41;;;;;;;0.10;0.10;;;;;;;;;;1029379;28;20022;-73
2023/09/22 00:39:11;;;;;;;1.38;1.27;;;;;;;;;;1029747;28;20443;-72
2023/09/22 00:39:42;;;;;;;0.32;0.32;;;;;;;;;;1029707;28;20121;-73
2023/09/22 00:40:12;;;;;;;0.52;0.52;;;;;;;;;;1029926;28;20393;-74
2023/09/22 00:40:43;;;;;;;0.52;0.52;;;;;;;;;;1029987;28;20046;-72
2023/09/22 00:41:14;;;;;;;0.50;0.50;;;;;;;;;;1029884;28;20112;-74
2023/09/22 00:41:44;;;;;;;0.40;0.40;;;;;;;;;;1029572;28;20058;-71
2023/09/22 00:42:15;;;;;;;0.00;0.00;;;;;;;;;;1029452;28;20288;-74
2023/09/22 00:42:45;;;;;;;0.00;0.00;;;;;;;;;;1029735;28;20023;-72
2023/09/22 00:43:17;;;;;;;0.00;0.00;;;;;;;;;;1029951;28;20143;-73
2023/09/22 00:43:47;;;;;;;0.17;0.17;;;;;;;;;;1030053;28;20169;-72
2023/09/22 00:44:18;;;;;;;0.38;0.38;;;;;;;;;;1029784;28;20019;-73
2023/09/22 00:44:48;;;;;;;0.10;0.10;;;;;;;;;;1029497;28;20022;-72
2023/09/22 00:45:19;;;;;;;0.10;0.10;;;;;;;;;;1029329;28;20022;-74
2023/09/22 00:45:51;;;;;;;1.08;0.80;;;;;;;;;;1025571;28;20484;-74
2023/09/22 00:46:23;;;;;;;1.00;0.57;;;;;;;;;;1024273;28;20018;-72
2023/09/22 00:46:54;;;;;;;0.20;0.20;;;;;;;;;;1024027;28;20019;-71
2023/09/22 00:47:24;;;;;;;0.50;0.50;;;;;;;;;;1025063;28;20114;-71
2023/09/22 00:47:54;;;;;;;0.00;0.00;;;;;;;;;;1028911;28;20062;-70
2023/09/22 00:48:29;;;;;;;0.10;0.10;;;;;;;;;;1025507;28;20391;-71
2023/09/22 00:48:59;;;;;;;1.85;0.90;;;;;;;;;;1025413;28;20387;-72
2023/09/22 00:49:31;;;;;;;0.00;0.00;;;;;;;;;;1025126;28;20055;-73
2023/09/22 00:50:02;;;;;;;1.13;0.30;;;;;;;;;;1026508;28;20110;-71
2023/09/22 00:50:32;;;;;;;0.35;0.35;;;;;;;;;;1029878;28;20053;-73
2023/09/22 00:51:03;;;;;;;0.40;0.40;;;;;;;;;;1025080;28;20023;-72
2023/09/22 00:51:33;;;;;;;0.20;0.20;;;;;;;;;;1025191;28;20059;-71
2023/09/22 00:52:04;;;;;;;0.57;0.57;;;;;;;;;;1025751;28;20031;-72
2023/09/22 00:52:35;;;;;;;0.47;0.43;;;;;;;;;;1025627;28;20027;-73
2023/09/22 00:53:05;;;;;;;0.10;0.10;;;;;;;;;;1030115;28;20030;-71
2023/09/22 00:53:37;;;;;;;0.00;0.00;;;;;;;;;;1029658;28;20022;-74
2023/09/22 00:54:07;;;;;;;0.13;0.13;;;;;;;;;;1029273;28;20467;-74
2023/09/22 00:54:38;;;;;;;0.10;0.10;;;;;;;;;;1030061;28;20121;-72
2023/09/22 00:55:09;;;;;;;0.50;0.50;;;;;;;;;;1030050;28;20096;-72
2023/09/22 00:55:39;;;;;;;0.00;0.00;;;;;;;;;;1028463;28;20387;-75
2023/09/22 00:56:10;;;;;;;0.20;0.20;;;;;;;;;;1029969;28;20118;-71
2023/09/22 00:56:40;;;;;;;0.10;0.10;;;;;;;;;;1030012;28;20022;-72
2023/09/22 00:57:11;;;;;;;0.80;0.63;;;;;;;;;;1029576;28;20029;-72
2023/09/22 00:57:41;;;;;;;0.20;0.20;;;;;;;;;;1028365;28;20451;-72
2023/09/22 00:58:12;;;;;;;0.10;0.10;;;;;;;;;;1027223;28;20034;-72
2023/09/22 00:58:42;;;;;;;1.05;0.90;;;;;;;;;;1029258;28;20478;-71
2023/09/22 00:59:14;;;;;;;0.03;0.03;;;;;;;;;;1027642;28;20034;-73
2023/09/22 00:59:45;;;;;;;2.55;1.17;;;;;;;;;;1028089;28;20640;-71
2023/09/22 01:00:18;;;;;;;0.63;0.63;;;;;;;;;;1027743;28;20026;-71
2023/09/22 01:00:49;;;;;;;0.43;0.30;;;;;;;;;;1028247;28;20121;-71
2023/09/22 01:01:20;;;;;;;0.10;0.10;;;;;;;;;;1027812;28;20033;-72
2023/09/22 01:01:51;;;;;;;0.10;0.10;;;;;;;;;;1024748;28;20395;-73
2023/09/22 01:02:22;;;;;;;0.47;0.47;;;;;;;;;;1025635;28;20030;-71
2023/09/22 01:02:54;;;;;;;1.90;1.17;;;;;;;;;;1024943;28;20463;-72
2023/09/22 01:03:24;;;;;;;0.00;0.00;;;;;;;;;;1025214;28;20026;-71
2023/09/22 01:03:55;;;;;;;0.10;0.10;;;;;;;;;;1029830;28;20556;-72
2023/09/22 01:04:26;;;;;;;0.00;0.00;;;;;;;;;;1028119;28;20157;-71
2023/09/22 01:04:56;;;;;;;0.25;0.25;;;;;;;;;;1029240;28;20026;-74
2023/09/22 01:05:26;;;;;;;1.13;0.50;;;;;;;;;;1029664;28;20467;-71
2023/09/22 01:05:57;;;;;;;0.00;0.00;;;;;;;;;;1028999;28;20022;-72
2023/09/22 01:06:28;;;;;;;1.73;1.35;;;;;;;;;;1029371;28;20031;-71
2023/09/22 01:06:59;;;;;;;0.10;0.10;;;;;;;;;;1029781;28;20029;-71
2023/09/22 01:07:30;;;;;;;0.17;0.17;;;;;;;;;;1028524;28;20053;-71
2023/09/22 01:08:01;;;;;;;0.70;0.25;;;;;;;;;;1029932;28;20081;-72
2023/09/22 01:08:31;;;;;;;0.10;0.10;;;;;;;;;;1029673;28;20067;-72
2023/09/22 01:09:06;;;;;;;1.58;0.95;;;;;;;;;;1024852;28;20055;-72
2023/09/22 01:09:41;;;;;;;0.10;0.10;;;;;;;;;;1024762;28;20122;-72
2023/09/22 01:10:12;;;;;;;0.15;0.15;;;;;;;;;;1025079;28;20085;-71
2023/09/22 01:10:43;;;;;;;0.20;0.20;;;;;;;;;;1026789;28;20073;-72
2023/09/22 01:11:13;;;;;;;0.10;0.10;;;;;;;;;;1028389;28;20030;-71
2023/09/22 01:11:44;;;;;;;0.10;0.10;;;;;;;;;;1029474;28;20030;-71
2023/09/22 01:12:15;;;;;;;0.30;0.30;;;;;;;;;;1029687;28;20121;-71
2023/09/22 01:12:45;;;;;;;1.10;0.77;;;;;;;;;;1028515;28;20068;-72
2023/09/22 01:13:16;;;;;;;0.10;0.10;;;;;;;;;;1029280;28;20030;-72
2023/09/22 01:13:46;;;;;;;0.10;0.10;;;;;;;;;;1030142;28;20092;-71
2023/09/22 01:14:16;;;;;;;0.10;0.10;;;;;;;;;;1025303;28;20466;-71
2023/09/22 01:14:47;;;;;;;0.17;0.17;;;;;;;;;;1025072;28;20399;-71
2023/09/22 01:15:17;;;;;;;0.10;0.10;;;;;;;;;;1024776;28;20066;-72
2023/09/22 01:15:48;;;;;;;0.10;0.10;;;;;;;;;;1024216;28;20039;-72
2023/09/22 01:16:19;;;;;;;0.10;0.10;;;;;;;;;;1029177;28;20095;-71
2023/09/22 01:16:51;;;;;;;0.20;0.20;;;;;;;;;;1029204;28;20022;-71
2023/09/22 01:17:23;;;;;;;0.10;0.10;;;;;;;;;;1027353;28;20018;-72
2023/09/22 01:17:53;;;;;;;0.20;0.20;;;;;;;;;;1026982;28;20088;-72
2023/09/22 01:18:24;;;;;;;0.10;0.10;;;;;;;;;;1029906;28;20101;-72
2023/09/22 01:18:54;;;;;;;1.88;0.52;;;;;;;;;;1028848;28;20026;-72
2023/09/22 01:19:25;;;;;;;0.20;0.20;;;;;;;;;;1029201;28;20026;-71
2023/09/22 01:19:55;;;;;;;0.10;0.10;;;;;;;;;;1028051;28;20031;-71
2023/09/22 01:20:26;;;;;;;0.10;0.10;;;;;;;;;;1029689;28;20022;-71
2023/09/22 01:20:59;;;;;;;0.03;0.03;;;;;;;;;;1024676;28;20023;-71
2023/09/22 01:21:31;;;;;;;0.10;0.10;;;;;;;;;;1023879;28;20058;-71
2023/09/22 01:22:03;;;;;;;0.10;0.10;;;;;;;;;;1022456;28;20023;-72
2023/09/22 01:22:35;;;;;;;0.00;0.00;;;;;;;;;;1023301;28;20023;-71
2023/09/22 01:23:06;;;;;;;0.10;0.10;;;;;;;;;;1024461;28;20026;-75
2023/09/22 01:23:36;;;;;;;0.10;0.10;;;;;;;;;;1023803;28;20019;-71
2023/09/22 01:24:07;;;;;;;0.00;0.00;;;;;;;;;;1024951;28;20023;-72
2023/09/22 01:24:38;;;;;;;0.80;0.80;;;;;;;;;;1028341;28;20367;-72
2023/09/22 01:25:09;;;;;;;0.10;0.10;;;;;;;;;;1026599;28;20113;-72
2023/09/22 01:25:42;;;;;;;0.00;0.00;;;;;;;;;;1027868;28;21293;-71
2023/09/22 01:26:13;;;;;;;1.02;0.80;;;;;;;;;;1029161;28;20104;-72
2023/09/22 01:26:43;;;;;;;0.17;0.17;;;;;;;;;;1026730;28;20378;-72
2023/09/22 01:27:14;;;;;;;0.10;0.10;;;;;;;;;;1026626;28;20040;-71
2023/09/22 01:27:44;;;;;;;0.10;0.10;;;;;;;;;;1024554;28;20044;-72
2023/09/22 01:28:15;;;;;;;0.90;0.90;;;;;;;;;;1020029;29;20035;-72
2023/09/22 01:28:45;;;;;;;0.17;0.17;;;;;;;;;;1015759;29;20064;-72
2023/09/22 01:29:16;;;;;;;0.57;0.57;;;;;;;;;;1017003;29;20476;-72
2023/09/22 01:29:46;;;;;;;0.20;0.20;;;;;;;;;;1018031;29;20038;-73
2023/09/22 01:30:17;;;;;;;0.22;0.22;;;;;;;;;;1020355;28;20023;-73
2023/09/22 01:30:49;;;;;;;0.13;0.13;;;;;;;;;;1025268;28;20043;-73
2023/09/22 01:31:19;;;;;;;1.15;1.13;;;;;;;;;;1022223;28;20035;-72
2023/09/22 01:31:50;;;;;;;0.25;0.22;;;;;;;;;;1021614;28;20555;-74
2023/09/22 01:32:20;;;;;;;2.75;0.40;;;;;;;;;;1025776;28;20038;-72
2023/09/22 01:32:51;;;;;;;0.00;0.00;;;;;;;;;;1026732;28;20027;-73
2023/09/22 01:33:22;;;;;;;0.00;0.00;;;;;;;;;;1026541;28;20045;-73
2023/09/22 01:33:53;;;;;;;0.10;0.10;;;;;;;;;;1026680;28;20594;-73
2023/09/22 01:34:25;;;;;;;0.28;0.28;;;;;;;;;;1025155;28;20027;-71
2023/09/22 01:34:57;;;;;;;0.10;0.10;;;;;;;;;;1027129;28;20023;-73
2023/09/22 01:35:32;;;;;;;0.10;0.10;;;;;;;;;;1023688;28;20226;-73
2023/09/22 01:36:02;;;;;;;0.15;0.15;;;;;;;;;;1024337;28;20224;-72
2023/09/22 01:36:33;;;;;;;0.10;0.10;;;;;;;;;;1024662;28;20405;-73
2023/09/22 01:37:07;;;;;;;0.00;0.00;;;;;;;;;;1025324;28;20031;-73
2023/09/22 01:37:41;;;;;;;1.95;1.17;;;;;;;;;;1021060;28;20059;-73
2023/09/22 01:38:15;;;;;;;0.20;0.20;;;;;;;;;;1021338;28;20394;-73
2023/09/22 01:38:46;;;;;;;0.40;0.40;;;;;;;;;;1021538;28;20106;-73
2023/09/22 01:39:16;;;;;;;0.30;0.30;;;;;;;;;;1021304;28;20924;-72
2023/09/22 01:39:47;;;;;;;0.10;0.10;;;;;;;;;;1022886;28;20045;-73
2023/09/22 01:40:17;;;;;;;0.00;0.00;;;;;;;;;;1023193;28;20121;-73
2023/09/22 01:40:48;;;;;;;17.38;1.10;;;;;;;;;;1021326;28;20151;-72
2023/09/22 01:41:18;;;;;;;0.00;0.00;;;;;;;;;;1025350;28;20160;-73
2023/09/22 01:41:49;;;;;;;0.00;0.00;;;;;;;;;;1021610;28;20429;-72
2023/09/22 01:42:20;;;;;;;0.10;0.10;;;;;;;;;;1023230;28;20057;-72
2023/09/22 01:42:51;;;;;;;0.13;0.13;;;;;;;;;;1022547;28;20534;-72
2023/09/22 01:43:21;;;;;;;0.10;0.10;;;;;;;;;;1022770;28;20043;-73
2023/09/22 01:43:52;;;;;;;0.10;0.10;;;;;;;;;;1026123;28;20459;-72
2023/09/22 01:44:22;;;;;;;0.08;0.08;;;;;;;;;;1022890;28;20026;-72
2023/09/22 01:44:53;;;;;;;0.20;0.20;;;;;;;;;;1020586;28;20097;-72
2023/09/22 01:45:23;;;;;;;0.10;0.10;;;;;;;;;;1015969;29;20487;-73
2023/09/22 01:45:54;;;;;;;0.00;0.00;;;;;;;;;;1018207;29;20997;-73
2023/09/22 01:46:24;;;;;;;0.98;0.98;;;;;;;;;;1020149;28;20117;-73
2023/09/22 01:46:55;;;;;;;1.30;0.93;;;;;;;;;;1021765;28;20203;-73
2023/09/22 01:47:25;;;;;;;0.10;0.10;;;;;;;;;;1027345;28;20029;-73
2023/09/22 01:47:56;;;;;;;0.80;0.60;;;;;;;;;;1026494;28;20081;-72
2023/09/22 01:48:26;;;;;;;1.02;0.93;;;;;;;;;;1028047;28;20076;-73
2023/09/22 01:48:57;;;;;;;0.82;0.82;;;;;;;;;;1028039;28;20394;-72
2023/09/22 01:49:27;;;;;;;0.10;0.10;;;;;;;;;;1023757;28;20018;-73
2023/09/22 01:49:58;;;;;;;0.00;0.00;;;;;;;;;;1024341;28;20714;-73
2023/09/22 01:50:28;;;;;;;0.52;0.52;;;;;;;;;;1024025;28;20486;-73
2023/09/22 01:51:00;;;;;;;0.00;0.00;;;;;;;;;;1023898;28;20083;-71
2023/09/22 01:51:30;;;;;;;0.75;0.75;;;;;;;;;;1027804;28;20033;-71
2023/09/22 01:52:01;;;;;;;0.88;0.88;;;;;;;;;;1026553;28;20046;-71
2023/09/22 01:52:31;;;;;;;0.00;0.00;;;;;;;;;;1026508;28;20561;-71
2023/09/22 01:53:02;;;;;;;0.90;0.68;;;;;;;;;;1025954;28;20062;-71
2023/09/22 01:53:32;;;;;;;0.10;0.10;;;;;;;;;;1022804;28;20038;-71
2023/09/22 01:54:03;;;;;;;0.57;0.57;;;;;;;;;;1021792;28;20369;-71
2023/09/22 01:54:33;;;;;;;0.10;0.10;;;;;;;;;;1023579;28;20093;-71
2023/09/22 01:55:05;;;;;;;0.00;0.00;;;;;;;;;;1024039;28;20058;-72
2023/09/22 01:55:36;;;;;;;0.00;0.00;;;;;;;;;;1029030;28;20022;-71
2023/09/22 01:56:07;;;;;;;0.47;0.47;;;;;;;;;;1028214;28;20537;-71
2023/09/22 01:56:38;;;;;;;0.15;0.15;;;;;;;;;;1023599;28;20180;-71
2023/09/22 01:57:08;;;;;;;0.30;0.25;;;;;;;;;;1021823;28;20755;-71
2023/09/22 01:57:39;;;;;;;0.00;0.00;;;;;;;;;;1021911;28;20019;-71
2023/09/22 01:58:11;;;;;;;0.00;0.00;;;;;;;;;;1025125;28;20502;-72
2023/09/22 01:58:41;;;;;;;0.20;0.20;;;;;;;;;;1027678;28;20435;-71
2023/09/22 01:59:12;;;;;;;0.10;0.10;;;;;;;;;;1027934;28;20022;-71
2023/09/22 01:59:43;;;;;;;3.13;1.00;;;;;;;;;;1025937;28;20030;-71
2023/09/22 02:00:14;;;;;;;0.00;0.00;;;;;;;;;;1026033;28;20611;-71
2023/09/22 02:00:44;;;;;;;0.10;0.10;;;;;;;;;;1021640;28;20125;-72
2023/09/22 02:01:15;;;;;;;0.20;0.20;;;;;;;;;;1024306;28;20452;-71
2023/09/22 02:01:45;;;;;;;0.20;0.20;;;;;;;;;;1022795;28;20119;-72
2023/09/22 02:02:16;;;;;;;0.70;0.70;;;;;;;;;;1019555;28;20033;-73
2023/09/22 02:02:46;;;;;;;0.13;0.13;;;;;;;;;;1020871;28;20023;-72
2023/09/22 02:03:17;;;;;;;0.10;0.10;;;;;;;;;;1023149;28;20039;-72
2023/09/22 02:03:48;;;;;;;0.38;0.38;;;;;;;;;;1023642;28;20027;-72
2023/09/22 02:04:18;;;;;;;0.20;0.20;;;;;;;;;;1027218;28;20673;-72
2023/09/22 02:04:49;;;;;;;0.00;0.00;;;;;;;;;;1026025;28;20037;-72
2023/09/22 02:05:19;;;;;;;0.20;0.20;;;;;;;;;;1023199;28;20015;-72
2023/09/22 02:05:50;;;;;;;0.15;0.15;;;;;;;;;;1021578;28;20027;-72
2023/09/22 02:06:21;;;;;;;0.95;0.90;;;;;;;;;;1023263;28;20062;-71
2023/09/22 02:06:52;;;;;;;0.10;0.10;;;;;;;;;;1017253;28;20090;-72
2023/09/22 02:07:22;;;;;;;0.00;0.00;;;;;;;;;;1021942;28;20561;-72
2023/09/22 02:07:52;;;;;;;0.45;0.45;;;;;;;;;;1019998;29;20030;-72
2023/09/22 02:08:23;;;;;;;0.10;0.10;;;;;;;;;;1020758;29;20032;-71
2023/09/22 02:08:54;;;;;;;0.20;0.20;;;;;;;;;;1024493;28;20410;-72
2023/09/22 02:09:25;;;;;;;0.32;0.28;;;;;;;;;;1020091;28;20058;-72
2023/09/22 02:09:55;;;;;;;0.20;0.20;;;;;;;;;;1020742;28;20487;-72
2023/09/22 02:10:26;;;;;;;0.40;0.40;;;;;;;;;;1021096;28;20066;-71
2023/09/22 02:10:56;;;;;;;0.52;0.22;;;;;;;;;;1020683;28;20022;-71
2023/09/22 02:11:27;;;;;;;0.30;0.30;;;;;;;;;;1026115;28;20530;-72
2023/09/22 02:11:57;;;;;;;2.40;0.57;;;;;;;;;;1025270;28;20078;-71
2023/09/22 02:12:28;;;;;;;0.63;0.63;;;;;;;;;;1024955;28;20157;-71
2023/09/22 02:13:00;;;;;;;2.13;0.30;;;;;;;;;;1027247;28;20862;-72
2023/09/22 02:13:30;;;;;;;0.38;0.38;;;;;;;;;;1023026;28;20484;-72
2023/09/22 02:14:01;;;;;;;0.43;0.40;;;;;;;;;;1021992;28;20031;-73
2023/09/22 02:14:32;;;;;;;1.00;0.47;;;;;;;;;;1021315;28;20364;-73
2023/09/22 02:15:03;;;;;;;0.10;0.10;;;;;;;;;;1022667;28;20094;-72
2023/09/22 02:15:35;;;;;;;1.23;0.98;;;;;;;;;;1021723;28;20105;-71
2023/09/22 02:16:06;;;;;;;2.65;2.10;;;;;;;;;;1021933;28;20803;-72
2023/09/22 02:16:36;;;;;;;2.60;0.55;;;;;;;;;;1022460;28;20038;-72
2023/09/22 02:17:07;;;;;;;0.10;0.10;;;;;;;;;;1021471;28;20232;-71
2023/09/22 02:17:38;;;;;;;0.30;0.30;;;;;;;;;;1021487;28;20476;-73
2023/09/22 02:18:08;;;;;;;0.13;0.13;;;;;;;;;;1023834;28;20118;-73
2023/09/22 02:18:38;;;;;;;0.80;0.80;;;;;;;;;;1020867;28;20102;-71
2023/09/22 02:19:09;;;;;;;0.10;0.10;;;;;;;;;;1021787;28;20465;-72
2023/09/22 02:19:39;;;;;;;0.10;0.10;;;;;;;;;;1022871;28;20074;-72
2023/09/22 02:20:21;;;;;;;3.85;1.55;;;;;;;;;;1020061;28;20062;-71
2023/09/22 02:20:53;;;;;;;0.17;0.17;;;;;;;;;;1021766;28;20027;-72
2023/09/22 02:21:24;;;;;;;1.65;1.35;;;;;;;;;;1025977;28;20039;-71
2023/09/22 02:21:54;;;;;;;0.52;0.52;;;;;;;;;;1027767;28;20394;-71
2023/09/22 02:22:25;;;;;;;0.17;0.13;;;;;;;;;;1026990;28;20035;-71
2023/09/22 02:22:56;;;;;;;0.10;0.10;;;;;;;;;;1025585;28;20034;-72
2023/09/22 02:23:27;;;;;;;0.73;0.73;;;;;;;;;;1027400;28;20133;-72
2023/09/22 02:23:57;;;;;;;0.10;0.10;;;;;;;;;;1027021;28;20033;-72
2023/09/22 02:24:28;;;;;;;0.65;0.65;;;;;;;;;;1027777;28;20031;-72
2023/09/22 02:24:58;;;;;;;0.60;0.30;;;;;;;;;;1024594;28;20042;-72
2023/09/22 02:25:29;;;;;;;0.28;0.28;;;;;;;;;;1023522;28;20019;-71
2023/09/22 02:26:06;;;;;;;0.10;0.10;;;;;;;;;;1024609;28;20037;-72
2023/09/22 02:26:36;;;;;;;0.38;0.38;;;;;;;;;;1023516;28;20422;-71
2023/09/22 02:27:07;;;;;;;1.48;0.63;;;;;;;;;;1028220;28;20022;-72
2023/09/22 02:27:37;;;;;;;0.10;0.10;;;;;;;;;;1025425;28;20030;-72
2023/09/22 02:28:08;;;;;;;0.20;0.20;;;;;;;;;;1024925;28;20429;-72
2023/09/22 02:28:38;;;;;;;0.17;0.17;;;;;;;;;;1027205;28;20409;-72
2023/09/22 02:29:09;;;;;;;0.75;0.75;;;;;;;;;;1027130;28;20022;-72
2023/09/22 02:29:39;;;;;;;1.23;0.52;;;;;;;;;;1026843;28;20118;-72
2023/09/22 02:30:10;;;;;;;10.23;1.05;;;;;;;;;;1027735;28;20113;-73
2023/09/22 02:30:40;;;;;;;0.10;0.10;;;;;;;;;;1028417;28;20034;-72
2023/09/22 02:31:12;;;;;;;0.93;0.88;;;;;;;;;;1027451;28;20499;-72
2023/09/22 02:31:42;;;;;;;0.00;0.00;;;;;;;;;;1027927;28;20113;-72
2023/09/22 02:32:13;;;;;;;1.98;0.45;;;;;;;;;;1027653;28;20618;-73
2023/09/22 02:32:48;;;;;;;1.33;0.68;;;;;;;;;;1028301;28;20594;-72
2023/09/22 02:33:19;;;;;;;3.00;0.50;;;;;;;;;;1023174;28;20031;-72
2023/09/22 02:33:50;;;;;;;0.20;0.20;;;;;;;;;;1022092;28;20413;-73
2023/09/22 02:34:21;;;;;;;2.05;1.95;;;;;;;;;;1022298;28;20095;-72
2023/09/22 02:34:51;;;;;;;0.57;0.43;;;;;;;;;;1023702;28;20133;-72
2023/09/22 02:35:22;;;;;;;0.75;0.75;;;;;;;;;;1025400;28;20164;-72
2023/09/22 02:35:52;;;;;;;0.10;0.10;;;;;;;;;;1021928;28;20043;-73
2023/09/22 02:36:23;;;;;;;5.82;0.35;;;;;;;;;;1025748;28;20121;-73
2023/09/22 02:36:53;;;;;;;0.17;0.17;;;;;;;;;;1026669;28;21156;-73
2023/09/22 02:37:24;;;;;;;0.32;0.32;;;;;;;;;;1028197;28;20059;-72
2023/09/22 02:37:55;;;;;;;0.30;0.30;;;;;;;;;;1022430;28;20031;-73
2023/09/22 02:38:26;;;;;;;1.35;0.63;;;;;;;;;;1023821;28;20377;-73
2023/09/22 02:38:57;;;;;;;0.35;0.35;;;;;;;;;;1022924;28;20400;-73
2023/09/22 02:39:28;;;;;;;0.57;0.30;;;;;;;;;;1024372;28;20046;-74
2023/09/22 02:39:58;;;;;;;0.40;0.40;;;;;;;;;;1024594;28;20034;-72
2023/09/22 02:40:29;;;;;;;1.65;0.35;;;;;;;;;;1023597;28;20201;-72
2023/09/22 02:41:00;;;;;;;0.17;0.17;;;;;;;;;;1015568;29;20028;-74
2023/09/22 02:41:32;;;;;;;0.52;0.47;;;;;;;;;;1015955;29;20111;-73
2023/09/22 02:42:03;;;;;;;1.33;1.23;;;;;;;;;;1013457;29;20395;-73
2023/09/22 02:42:33;;;;;;;1.65;0.70;;;;;;;;;;1015958;29;20034;-73
2023/09/22 02:43:05;;;;;;;0.30;0.30;;;;;;;;;;1018277;29;20123;-73
2023/09/22 02:43:35;;;;;;;0.10;0.10;;;;;;;;;;1020010;28;20484;-74
2023/09/22 02:44:08;;;;;;;0.20;0.20;;;;;;;;;;1021900;28;20027;-73
2023/09/22 02:44:38;;;;;;;0.40;0.40;;;;;;;;;;1016356;28;20058;-73
2023/09/22 02:45:09;;;;;;;0.70;0.35;;;;;;;;;;1020935;28;20149;-73
2023/09/22 02:45:40;;;;;;;0.10;0.10;;;;;;;;;;1022776;28;20305;-73
2023/09/22 02:46:10;;;;;;;0.47;0.47;;;;;;;;;;1024101;28;20048;-73
2023/09/22 02:46:41;;;;;;;1.45;0.90;;;;;;;;;;1024865;28;20065;-73
2023/09/22 02:47:12;;;;;;;0.30;0.30;;;;;;;;;;1024827;28;20343;-73
2023/09/22 02:47:42;;;;;;;0.85;0.85;;;;;;;;;;1021654;28;20035;-74
2023/09/22 02:48:13;;;;;;;0.20;0.20;;;;;;;;;;1020693;28;20618;-72
2023/09/22 02:48:45;;;;;;;0.47;0.47;;;;;;;;;;1019193;28;20073;-74
2023/09/22 02:49:16;;;;;;;0.25;0.25;;;;;;;;;;1017864;28;20029;-74
2023/09/22 02:49:47;;;;;;;0.40;0.40;;;;;;;;;;1021618;28;20042;-74
2023/09/22 02:50:19;;;;;;;0.28;0.28;;;;;;;;;;1026897;28;20360;-73
2023/09/22 02:50:50;;;;;;;0.50;0.50;;;;;;;;;;1023893;28;20108;-73
2023/09/22 02:51:20;;;;;;;0.35;0.35;;;;;;;;;;1020439;28;20182;-73
2023/09/22 02:51:52;;;;;;;0.75;0.45;;;;;;;;;;1018044;29;20055;-72
2023/09/22 02:52:22;;;;;;;0.20;0.20;;;;;;;;;;1017247;28;20040;-73
2023/09/22 02:52:53;;;;;;;1.08;1.02;;;;;;;;;;1016393;29;20043;-73
2023/09/22 02:53:24;;;;;;;0.10;0.10;;;;;;;;;;1018856;28;20110;-74
2023/09/22 02:53:54;;;;;;;0.00;0.00;;;;;;;;;;1021300;28;20019;-73
2023/09/22 02:54:25;;;;;;;0.10;0.10;;;;;;;;;;1022402;28;20109;-74
2023/09/22 02:54:57;;;;;;;1.42;0.90;;;;;;;;;;1024846;28;20039;-73
2023/09/22 02:55:27;;;;;;;0.30;0.30;;;;;;;;;;1023913;28;20066;-73
2023/09/22 02:56:05;;;;;;;1.52;0.98;;;;;;;;;;1023292;28;20034;-73
2023/09/22 02:56:37;;;;;;;0.60;0.60;;;;;;;;;;1022822;28;20041;-73
2023/09/22 02:57:08;;;;;;;1.80;0.82;;;;;;;;;;1024367;28;20032;-73
2023/09/22 02:57:38;;;;;;;0.20;0.20;;;;;;;;;;1026730;28;20019;-73
2023/09/22 02:58:09;;;;;;;1.25;0.98;;;;;;;;;;1022849;28;20462;-73
2023/09/22 02:58:39;;;;;;;0.47;0.47;;;;;;;;;;1020701;28;20023;-73
2023/09/22 02:59:10;;;;;;;0.45;0.40;;;;;;;;;;1020187;28;20034;-73
2023/09/22 02:59:44;;;;;;;0.25;0.25;;;;;;;;;;1018679;28;20031;-73
2023/09/22 03:00:20;;;;;;;18.88;0.77;;;;;;;;;;1020012;28;20276;-74
2023/09/22 03:00:51;;;;;;;1.35;0.80;;;;;;;;;;1025105;28;20069;-74
2023/09/22 03:01:21;;;;;;;1.63;0.65;;;;;;;;;;1017958;28;20478;-74
2023/09/22 03:01:52;;;;;;;1.52;1.35;;;;;;;;;;1019956;28;20110;-74
2023/09/22 03:02:23;;;;;;;2.85;0.93;;;;;;;;;;1023056;28;20047;-73
2023/09/22 03:02:54;;;;;;;0.52;0.35;;;;;;;;;;1021842;28;20019;-75
2023/09/22 03:03:25;;;;;;;0.20;0.20;;;;;;;;;;1023280;28;20047;-74
2023/09/22 03:03:56;;;;;;;1.45;0.75;;;;;;;;;;1020376;29;20319;-74
2023/09/22 03:04:27;;;;;;;0.30;0.30;;;;;;;;;;1016265;29;20046;-74
2023/09/22 03:04:57;;;;;;;1.40;0.77;;;;;;;;;;1011513;29;20271;-74
2023/09/22 03:05:30;;;;;;;0.10;0.10;;;;;;;;;;1016512;29;20334;-73